sensor_id;sensor_type;location;lat;lon;timestamp;P1;durP1;ratioP1;P2;durP2;ratioP2
12267;SDS011;6196;48.398;11.736;2022-10-16T00:01:29;4.53;;;1.93;;
12267;SDS011;6196;48.398;11.736;2022-10-16T00:03:57;3.87;;;2.40;;
12267;SDS011;6196;48.398;11.736;2022-10-16T00:06:26;4.17;;;2.20;;
12267;SDS011;6196;48.398;11.736;2022-10-16T00:08:54;4.93;;;2.50;;
12267;SDS011;6196;48.398;11.736;2022-10-16T00:11:26;4.17;;;2.50;;
12267;SDS011;6196;48.398;11.736;2022-10-16T00:14:00;2.97;;;2.37;;
12267;SDS011;6196;48.398;11.736;2022-10-16T00:16:29;4.80;;;3.00;;
12267;SDS011;6196;48.398;11.736;2022-10-16T00:18:57;2.67;;;2.40;;
12267;SDS011;6196;48.398;11.736;2022-10-16T00:21:25;6.30;;;2.70;;
12267;SDS011;6196;48.398;11.736;2022-10-16T00:23:55;4.37;;;3.10;;
12267;SDS011;6196;48.398;11.736;2022-10-16T00:26:29;3.87;;;2.80;;
12267;SDS011;6196;48.398;11.736;2022-10-16T00:28:58;4.83;;;3.13;;
12267;SDS011;6196;48.398;11.736;2022-10-16T00:31:26;3.10;;;2.80;;
12267;SDS011;6196;48.398;11.736;2022-10-16T00:33:53;3.63;;;3.03;;
12267;SDS011;6196;48.398;11.736;2022-10-16T00:36:21;6.33;;;3.53;;
12267;SDS011;6196;48.398;11.736;2022-10-16T00:38:51;5.30;;;3.10;;
12267;SDS011;6196;48.398;11.736;2022-10-16T00:41:21;5.50;;;2.83;;
12267;SDS011;6196;48.398;11.736;2022-10-16T00:43:53;4.97;;;2.80;;
12267;SDS011;6196;48.398;11.736;2022-10-16T00:48:52;5.00;;;2.80;;
12267;SDS011;6196;48.398;11.736;2022-10-16T00:51:40;4.07;;;2.57;;
12267;SDS011;6196;48.398;11.736;2022-10-16T00:54:17;5.43;;;2.90;;
12267;SDS011;6196;48.398;11.736;2022-10-16T00:56:49;4.20;;;2.73;;
12267;SDS011;6196;48.398;11.736;2022-10-16T01:01:53;6.90;;;2.83;;
12267;SDS011;6196;48.398;11.736;2022-10-16T01:04:21;4.10;;;2.63;;
12267;SDS011;6196;48.398;11.736;2022-10-16T01:09:57;3.50;;;3.03;;
12267;SDS011;6196;48.398;11.736;2022-10-16T01:12:50;3.37;;;3.07;;
12267;SDS011;6196;48.398;11.736;2022-10-16T01:15:31;4.93;;;2.50;;
12267;SDS011;6196;48.398;11.736;2022-10-16T01:21:09;3.77;;;2.70;;
12267;SDS011;6196;48.398;11.736;2022-10-16T01:27:02;4.97;;;2.73;;
12267;SDS011;6196;48.398;11.736;2022-10-16T01:29:48;3.57;;;2.70;;
12267;SDS011;6196;48.398;11.736;2022-10-16T01:32:42;3.33;;;2.43;;
12267;SDS011;6196;48.398;11.736;2022-10-16T01:35:30;4.30;;;2.60;;
12267;SDS011;6196;48.398;11.736;2022-10-16T01:38:05;3.00;;;2.60;;
12267;SDS011;6196;48.398;11.736;2022-10-16T01:40:49;3.53;;;2.50;;
12267;SDS011;6196;48.398;11.736;2022-10-16T01:43:26;3.07;;;2.30;;
12267;SDS011;6196;48.398;11.736;2022-10-16T01:46:00;3.57;;;2.53;;
12267;SDS011;6196;48.398;11.736;2022-10-16T01:48:28;3.73;;;2.70;;
12267;SDS011;6196;48.398;11.736;2022-10-16T01:51:06;4.03;;;3.03;;
12267;SDS011;6196;48.398;11.736;2022-10-16T01:53:39;4.30;;;2.33;;
12267;SDS011;6196;48.398;11.736;2022-10-16T01:56:08;2.37;;;2.10;;
12267;SDS011;6196;48.398;11.736;2022-10-16T01:58:40;3.07;;;2.17;;
12267;SDS011;6196;48.398;11.736;2022-10-16T02:01:12;3.03;;;2.30;;
12267;SDS011;6196;48.398;11.736;2022-10-16T02:03:43;2.43;;;2.23;;
12267;SDS011;6196;48.398;11.736;2022-10-16T02:06:11;3.63;;;2.27;;
12267;SDS011;6196;48.398;11.736;2022-10-16T02:08:38;4.70;;;2.23;;
12267;SDS011;6196;48.398;11.736;2022-10-16T02:11:10;3.67;;;2.17;;
12267;SDS011;6196;48.398;11.736;2022-10-16T02:16:14;3.97;;;2.20;;
12267;SDS011;6196;48.398;11.736;2022-10-16T02:18:42;2.83;;;2.47;;
12267;SDS011;6196;48.398;11.736;2022-10-16T02:21:18;3.20;;;2.40;;
12267;SDS011;6196;48.398;11.736;2022-10-16T02:26:39;3.37;;;2.10;;
12267;SDS011;6196;48.398;11.736;2022-10-16T02:29:26;3.50;;;2.00;;
12267;SDS011;6196;48.398;11.736;2022-10-16T02:31:55;3.73;;;2.00;;
12267;SDS011;6196;48.398;11.736;2022-10-16T02:34:27;2.33;;;1.97;;
12267;SDS011;6196;48.398;11.736;2022-10-16T02:36:58;2.90;;;1.90;;
12267;SDS011;6196;48.398;11.736;2022-10-16T02:39:27;2.70;;;2.20;;
12267;SDS011;6196;48.398;11.736;2022-10-16T02:41:55;4.10;;;1.93;;
12267;SDS011;6196;48.398;11.736;2022-10-16T02:44:22;5.47;;;2.33;;
12267;SDS011;6196;48.398;11.736;2022-10-16T02:46:49;1.90;;;1.80;;
12267;SDS011;6196;48.398;11.736;2022-10-16T02:49:16;2.47;;;1.80;;
12267;SDS011;6196;48.398;11.736;2022-10-16T02:51:44;2.20;;;1.60;;
12267;SDS011;6196;48.398;11.736;2022-10-16T02:54:10;2.87;;;1.90;;
12267;SDS011;6196;48.398;11.736;2022-10-16T02:56:37;2.90;;;2.10;;
12267;SDS011;6196;48.398;11.736;2022-10-16T02:59:04;2.83;;;1.90;;
12267;SDS011;6196;48.398;11.736;2022-10-16T03:01:31;4.87;;;1.80;;
12267;SDS011;6196;48.398;11.736;2022-10-16T03:03:58;1.97;;;1.80;;
12267;SDS011;6196;48.398;11.736;2022-10-16T03:06:25;4.03;;;1.70;;
12267;SDS011;6196;48.398;11.736;2022-10-16T03:08:52;5.77;;;1.90;;
12267;SDS011;6196;48.398;11.736;2022-10-16T03:11:18;3.23;;;1.87;;
12267;SDS011;6196;48.398;11.736;2022-10-16T03:13:45;6.70;;;1.80;;
12267;SDS011;6196;48.398;11.736;2022-10-16T03:16:12;3.53;;;1.73;;
12267;SDS011;6196;48.398;11.736;2022-10-16T03:18:39;2.47;;;2.10;;
12267;SDS011;6196;48.398;11.736;2022-10-16T03:21:06;4.40;;;1.80;;
12267;SDS011;6196;48.398;11.736;2022-10-16T03:23:33;6.90;;;2.03;;
12267;SDS011;6196;48.398;11.736;2022-10-16T03:26:00;3.10;;;1.80;;
12267;SDS011;6196;48.398;11.736;2022-10-16T03:28:26;3.83;;;2.03;;
12267;SDS011;6196;48.398;11.736;2022-10-16T03:30:53;2.00;;;1.90;;
12267;SDS011;6196;48.398;11.736;2022-10-16T03:33:20;4.07;;;2.13;;
12267;SDS011;6196;48.398;11.736;2022-10-16T03:35:51;2.30;;;2.03;;
12267;SDS011;6196;48.398;11.736;2022-10-16T03:38:19;2.50;;;2.30;;
12267;SDS011;6196;48.398;11.736;2022-10-16T03:40:47;3.10;;;2.17;;
12267;SDS011;6196;48.398;11.736;2022-10-16T03:43:14;4.40;;;2.33;;
12267;SDS011;6196;48.398;11.736;2022-10-16T03:45:41;4.20;;;2.43;;
12267;SDS011;6196;48.398;11.736;2022-10-16T03:48:08;2.60;;;2.37;;
12267;SDS011;6196;48.398;11.736;2022-10-16T03:50:35;2.80;;;1.90;;
12267;SDS011;6196;48.398;11.736;2022-10-16T03:53:02;3.30;;;2.47;;
12267;SDS011;6196;48.398;11.736;2022-10-16T03:55:29;3.53;;;1.80;;
12267;SDS011;6196;48.398;11.736;2022-10-16T03:57:56;1.87;;;1.77;;
12267;SDS011;6196;48.398;11.736;2022-10-16T04:00:23;2.80;;;2.00;;
12267;SDS011;6196;48.398;11.736;2022-10-16T04:02:49;2.33;;;2.13;;
12267;SDS011;6196;48.398;11.736;2022-10-16T04:05:16;2.47;;;1.67;;
12267;SDS011;6196;48.398;11.736;2022-10-16T04:07:43;2.43;;;1.73;;
12267;SDS011;6196;48.398;11.736;2022-10-16T04:10:10;2.70;;;1.77;;
12267;SDS011;6196;48.398;11.736;2022-10-16T04:12:37;2.50;;;1.60;;
12267;SDS011;6196;48.398;11.736;2022-10-16T04:15:04;1.87;;;1.60;;
12267;SDS011;6196;48.398;11.736;2022-10-16T04:17:31;1.93;;;1.60;;
12267;SDS011;6196;48.398;11.736;2022-10-16T04:19:57;3.30;;;1.97;;
12267;SDS011;6196;48.398;11.736;2022-10-16T04:22:25;4.63;;;2.00;;
12267;SDS011;6196;48.398;11.736;2022-10-16T04:24:52;2.67;;;1.47;;
12267;SDS011;6196;48.398;11.736;2022-10-16T04:27:19;6.30;;;1.60;;
12267;SDS011;6196;48.398;11.736;2022-10-16T04:29:46;1.67;;;1.57;;
12267;SDS011;6196;48.398;11.736;2022-10-16T04:32:13;2.93;;;1.40;;
12267;SDS011;6196;48.398;11.736;2022-10-16T04:34:40;4.23;;;1.40;;
12267;SDS011;6196;48.398;11.736;2022-10-16T04:37:07;2.40;;;1.47;;
12267;SDS011;6196;48.398;11.736;2022-10-16T04:39:34;8.23;;;1.70;;
12267;SDS011;6196;48.398;11.736;2022-10-16T04:42:01;3.10;;;1.50;;
12267;SDS011;6196;48.398;11.736;2022-10-16T04:44:28;3.70;;;1.70;;
12267;SDS011;6196;48.398;11.736;2022-10-16T04:46:55;4.43;;;1.60;;
12267;SDS011;6196;48.398;11.736;2022-10-16T04:49:22;3.10;;;1.30;;
12267;SDS011;6196;48.398;11.736;2022-10-16T04:51:48;2.73;;;1.30;;
12267;SDS011;6196;48.398;11.736;2022-10-16T04:54:15;4.30;;;1.80;;
12267;SDS011;6196;48.398;11.736;2022-10-16T04:56:42;1.93;;;1.40;;
12267;SDS011;6196;48.398;11.736;2022-10-16T04:59:15;3.87;;;1.43;;
12267;SDS011;6196;48.398;11.736;2022-10-16T05:01:44;1.40;;;1.30;;
12267;SDS011;6196;48.398;11.736;2022-10-16T05:04:11;2.10;;;1.37;;
12267;SDS011;6196;48.398;11.736;2022-10-16T05:06:38;1.20;;;1.10;;
12267;SDS011;6196;48.398;11.736;2022-10-16T05:09:05;1.50;;;1.40;;
12267;SDS011;6196;48.398;11.736;2022-10-16T05:11:32;2.03;;;1.40;;
12267;SDS011;6196;48.398;11.736;2022-10-16T05:13:59;1.70;;;1.37;;
12267;SDS011;6196;48.398;11.736;2022-10-16T05:16:27;2.00;;;1.40;;
12267;SDS011;6196;48.398;11.736;2022-10-16T05:18:56;1.83;;;1.50;;
12267;SDS011;6196;48.398;11.736;2022-10-16T05:21:43;2.50;;;1.30;;
12267;SDS011;6196;48.398;11.736;2022-10-16T05:24:09;2.27;;;1.30;;
12267;SDS011;6196;48.398;11.736;2022-10-16T05:26:36;2.93;;;1.20;;
12267;SDS011;6196;48.398;11.736;2022-10-16T05:29:03;2.33;;;1.17;;
12267;SDS011;6196;48.398;11.736;2022-10-16T05:31:30;2.90;;;1.37;;
12267;SDS011;6196;48.398;11.736;2022-10-16T05:34:00;2.07;;;1.50;;
12267;SDS011;6196;48.398;11.736;2022-10-16T05:36:27;2.70;;;1.50;;
12267;SDS011;6196;48.398;11.736;2022-10-16T05:38:54;1.60;;;1.50;;
12267;SDS011;6196;48.398;11.736;2022-10-16T05:41:21;1.50;;;1.20;;
12267;SDS011;6196;48.398;11.736;2022-10-16T05:43:49;4.63;;;1.33;;
12267;SDS011;6196;48.398;11.736;2022-10-16T05:46:16;1.60;;;1.10;;
12267;SDS011;6196;48.398;11.736;2022-10-16T05:48:43;2.43;;;1.50;;
12267;SDS011;6196;48.398;11.736;2022-10-16T05:51:11;1.40;;;1.20;;
12267;SDS011;6196;48.398;11.736;2022-10-16T05:53:40;3.00;;;1.53;;
12267;SDS011;6196;48.398;11.736;2022-10-16T05:56:10;1.60;;;1.50;;
12267;SDS011;6196;48.398;11.736;2022-10-16T05:58:38;4.40;;;1.50;;
12267;SDS011;6196;48.398;11.736;2022-10-16T06:01:24;1.43;;;1.33;;
12267;SDS011;6196;48.398;11.736;2022-10-16T06:03:51;5.93;;;1.23;;
12267;SDS011;6196;48.398;11.736;2022-10-16T06:06:20;6.43;;;1.53;;
12267;SDS011;6196;48.398;11.736;2022-10-16T06:08:50;2.43;;;1.30;;
12267;SDS011;6196;48.398;11.736;2022-10-16T06:11:18;3.30;;;1.27;;
12267;SDS011;6196;48.398;11.736;2022-10-16T06:13:54;2.43;;;1.60;;
12267;SDS011;6196;48.398;11.736;2022-10-16T06:16:27;2.53;;;1.20;;
12267;SDS011;6196;48.398;11.736;2022-10-16T06:18:55;2.50;;;1.30;;
12267;SDS011;6196;48.398;11.736;2022-10-16T06:21:23;5.03;;;1.40;;
12267;SDS011;6196;48.398;11.736;2022-10-16T06:23:51;2.90;;;1.20;;
12267;SDS011;6196;48.398;11.736;2022-10-16T06:26:20;2.67;;;1.20;;
12267;SDS011;6196;48.398;11.736;2022-10-16T06:28:50;2.23;;;1.33;;
12267;SDS011;6196;48.398;11.736;2022-10-16T06:31:17;1.87;;;1.20;;
12267;SDS011;6196;48.398;11.736;2022-10-16T06:33:44;4.27;;;1.50;;
12267;SDS011;6196;48.398;11.736;2022-10-16T06:36:14;1.30;;;1.20;;
12267;SDS011;6196;48.398;11.736;2022-10-16T06:38:43;2.17;;;0.93;;
12267;SDS011;6196;48.398;11.736;2022-10-16T06:41:14;1.53;;;1.40;;
12267;SDS011;6196;48.398;11.736;2022-10-16T06:43:44;3.23;;;1.63;;
12267;SDS011;6196;48.398;11.736;2022-10-16T06:46:13;4.40;;;1.60;;
12267;SDS011;6196;48.398;11.736;2022-10-16T06:48:43;2.03;;;1.47;;
12267;SDS011;6196;48.398;11.736;2022-10-16T06:51:11;3.20;;;1.60;;
12267;SDS011;6196;48.398;11.736;2022-10-16T06:53:47;2.53;;;1.30;;
12267;SDS011;6196;48.398;11.736;2022-10-16T06:56:28;2.67;;;1.00;;
12267;SDS011;6196;48.398;11.736;2022-10-16T06:58:57;3.50;;;1.37;;
12267;SDS011;6196;48.398;11.736;2022-10-16T07:01:25;3.07;;;1.27;;
12267;SDS011;6196;48.398;11.736;2022-10-16T07:03:53;2.13;;;1.20;;
12267;SDS011;6196;48.398;11.736;2022-10-16T07:06:21;2.70;;;1.23;;
12267;SDS011;6196;48.398;11.736;2022-10-16T07:08:50;3.03;;;1.20;;
12267;SDS011;6196;48.398;11.736;2022-10-16T07:11:18;1.47;;;1.37;;
12267;SDS011;6196;48.398;11.736;2022-10-16T07:13:50;3.83;;;1.97;;
12267;SDS011;6196;48.398;11.736;2022-10-16T07:16:22;2.17;;;1.23;;
12267;SDS011;6196;48.398;11.736;2022-10-16T07:18:54;1.67;;;1.17;;
12267;SDS011;6196;48.398;11.736;2022-10-16T07:21:26;3.43;;;1.10;;
12267;SDS011;6196;48.398;11.736;2022-10-16T07:24:03;1.87;;;1.20;;
12267;SDS011;6196;48.398;11.736;2022-10-16T07:26:33;1.73;;;1.07;;
12267;SDS011;6196;48.398;11.736;2022-10-16T07:29:02;1.30;;;1.20;;
12267;SDS011;6196;48.398;11.736;2022-10-16T07:31:29;1.83;;;1.10;;
12267;SDS011;6196;48.398;11.736;2022-10-16T07:33:57;3.63;;;1.60;;
12267;SDS011;6196;48.398;11.736;2022-10-16T07:36:27;1.50;;;1.20;;
12267;SDS011;6196;48.398;11.736;2022-10-16T07:38:54;1.37;;;1.27;;
12267;SDS011;6196;48.398;11.736;2022-10-16T07:41:25;2.43;;;1.10;;
12267;SDS011;6196;48.398;11.736;2022-10-16T07:43:52;2.93;;;1.17;;
12267;SDS011;6196;48.398;11.736;2022-10-16T07:46:21;1.70;;;1.20;;
12267;SDS011;6196;48.398;11.736;2022-10-16T07:48:49;1.40;;;1.30;;
12267;SDS011;6196;48.398;11.736;2022-10-16T07:51:19;2.73;;;1.00;;
12267;SDS011;6196;48.398;11.736;2022-10-16T07:53:48;1.70;;;1.20;;
12267;SDS011;6196;48.398;11.736;2022-10-16T07:56:16;2.83;;;1.17;;
12267;SDS011;6196;48.398;11.736;2022-10-16T07:58:44;1.20;;;1.10;;
12267;SDS011;6196;48.398;11.736;2022-10-16T08:01:12;1.67;;;1.10;;
12267;SDS011;6196;48.398;11.736;2022-10-16T08:03:44;1.30;;;1.20;;
12267;SDS011;6196;48.398;11.736;2022-10-16T08:06:13;4.50;;;1.20;;
12267;SDS011;6196;48.398;11.736;2022-10-16T08:08:41;2.73;;;1.13;;
12267;SDS011;6196;48.398;11.736;2022-10-16T08:11:08;1.30;;;1.20;;
12267;SDS011;6196;48.398;11.736;2022-10-16T08:13:35;2.33;;;1.53;;
12267;SDS011;6196;48.398;11.736;2022-10-16T08:16:03;1.57;;;1.47;;
12267;SDS011;6196;48.398;11.736;2022-10-16T08:18:34;3.80;;;1.30;;
12267;SDS011;6196;48.398;11.736;2022-10-16T08:21:02;2.97;;;1.50;;
12267;SDS011;6196;48.398;11.736;2022-10-16T08:23:30;1.60;;;1.50;;
12267;SDS011;6196;48.398;11.736;2022-10-16T08:26:01;3.00;;;1.40;;
12267;SDS011;6196;48.398;11.736;2022-10-16T08:28:32;2.80;;;1.40;;
12267;SDS011;6196;48.398;11.736;2022-10-16T08:31:12;2.67;;;1.60;;
12267;SDS011;6196;48.398;11.736;2022-10-16T08:33:43;2.43;;;1.60;;
12267;SDS011;6196;48.398;11.736;2022-10-16T08:36:13;2.13;;;1.40;;
12267;SDS011;6196;48.398;11.736;2022-10-16T08:38:41;3.87;;;1.80;;
12267;SDS011;6196;48.398;11.736;2022-10-16T08:41:13;1.67;;;1.30;;
12267;SDS011;6196;48.398;11.736;2022-10-16T08:44:01;2.07;;;1.23;;
12267;SDS011;6196;48.398;11.736;2022-10-16T08:49:42;2.03;;;1.40;;
12267;SDS011;6196;48.398;11.736;2022-10-16T08:52:22;3.10;;;1.43;;
12267;SDS011;6196;48.398;11.736;2022-10-16T08:54:56;2.07;;;1.40;;
12267;SDS011;6196;48.398;11.736;2022-10-16T08:57:24;5.23;;;1.30;;
12267;SDS011;6196;48.398;11.736;2022-10-16T08:59:53;1.80;;;1.60;;
12267;SDS011;6196;48.398;11.736;2022-10-16T09:04:58;1.87;;;1.50;;
12267;SDS011;6196;48.398;11.736;2022-10-16T09:07:53;2.50;;;1.80;;
12267;SDS011;6196;48.398;11.736;2022-10-16T09:10:52;2.43;;;1.50;;
12267;SDS011;6196;48.398;11.736;2022-10-16T09:13:34;3.70;;;1.70;;
12267;SDS011;6196;48.398;11.736;2022-10-16T09:16:49;2.37;;;1.80;;
12267;SDS011;6196;48.398;11.736;2022-10-16T09:19:27;2.90;;;1.70;;
12267;SDS011;6196;48.398;11.736;2022-10-16T09:22:04;2.30;;;1.90;;
12267;SDS011;6196;48.398;11.736;2022-10-16T09:24:39;1.77;;;1.57;;
12267;SDS011;6196;48.398;11.736;2022-10-16T09:27:09;2.40;;;1.83;;
12267;SDS011;6196;48.398;11.736;2022-10-16T09:29:40;1.90;;;1.43;;
12267;SDS011;6196;48.398;11.736;2022-10-16T09:32:41;3.50;;;1.60;;
12267;SDS011;6196;48.398;11.736;2022-10-16T09:35:01;1.73;;;1.63;;
12267;SDS011;6196;48.398;11.736;2022-10-16T09:37:28;4.50;;;1.60;;
12267;SDS011;6196;48.398;11.736;2022-10-16T09:39:55;2.07;;;1.60;;
12267;SDS011;6196;48.398;11.736;2022-10-16T09:42:23;2.90;;;1.60;;
12267;SDS011;6196;48.398;11.736;2022-10-16T09:45:02;2.03;;;1.50;;
12267;SDS011;6196;48.398;11.736;2022-10-16T09:47:31;2.03;;;1.67;;
12267;SDS011;6196;48.398;11.736;2022-10-16T09:50:03;1.50;;;1.40;;
12267;SDS011;6196;48.398;11.736;2022-10-16T09:53:11;1.70;;;1.60;;
12267;SDS011;6196;48.398;11.736;2022-10-16T09:55:49;3.57;;;1.53;;
12267;SDS011;6196;48.398;11.736;2022-10-16T09:58:22;3.40;;;1.70;;
12267;SDS011;6196;48.398;11.736;2022-10-16T10:00:53;2.27;;;1.60;;
12267;SDS011;6196;48.398;11.736;2022-10-16T10:06:23;2.10;;;1.60;;
12267;SDS011;6196;48.398;11.736;2022-10-16T10:08:55;1.67;;;1.53;;
12267;SDS011;6196;48.398;11.736;2022-10-16T10:11:38;3.43;;;1.87;;
12267;SDS011;6196;48.398;11.736;2022-10-16T10:14:36;3.63;;;1.50;;
12267;SDS011;6196;48.398;11.736;2022-10-16T10:19:40;1.73;;;1.63;;
12267;SDS011;6196;48.398;11.736;2022-10-16T10:28:24;2.60;;;1.70;;
12267;SDS011;6196;48.398;11.736;2022-10-16T10:37:14;2.73;;;1.73;;
12267;SDS011;6196;48.398;11.736;2022-10-16T10:40:09;2.60;;;1.50;;
12267;SDS011;6196;48.398;11.736;2022-10-16T10:42:53;1.93;;;1.60;;
12267;SDS011;6196;48.398;11.736;2022-10-16T10:45:37;2.03;;;1.60;;
12267;SDS011;6196;48.398;11.736;2022-10-16T10:48:17;2.22;;;1.80;;
12267;SDS011;6196;48.398;11.736;2022-10-16T10:50:57;1.75;;;1.65;;
12267;SDS011;6196;48.398;11.736;2022-10-16T10:59:24;2.13;;;1.92;;
12267;SDS011;6196;48.398;11.736;2022-10-16T11:07:56;2.05;;;1.85;;
12267;SDS011;6196;48.398;11.736;2022-10-16T11:10:30;1.52;;;1.40;;
12267;SDS011;6196;48.398;11.736;2022-10-16T11:13:20;4.25;;;1.85;;
12267;SDS011;6196;48.398;11.736;2022-10-16T11:16:13;1.90;;;1.80;;
12267;SDS011;6196;48.398;11.736;2022-10-16T11:22:03;2.45;;;1.67;;
12267;SDS011;6196;48.398;11.736;2022-10-16T11:30:26;2.95;;;1.58;;
12267;SDS011;6196;48.398;11.736;2022-10-16T11:33:00;2.72;;;1.70;;
12267;SDS011;6196;48.398;11.736;2022-10-16T11:35:55;2.65;;;1.77;;
12267;SDS011;6196;48.398;11.736;2022-10-16T11:41:35;1.80;;;1.55;;
12267;SDS011;6196;48.398;11.736;2022-10-16T11:44:44;3.10;;;1.90;;
12267;SDS011;6196;48.398;11.736;2022-10-16T11:47:36;2.15;;;1.85;;
12267;SDS011;6196;48.398;11.736;2022-10-16T11:50:43;2.50;;;1.75;;
12267;SDS011;6196;48.398;11.736;2022-10-16T11:56:28;1.50;;;1.40;;
12267;SDS011;6196;48.398;11.736;2022-10-16T12:07:12;3.30;;;1.50;;
12267;SDS011;6196;48.398;11.736;2022-10-16T12:09:44;4.28;;;1.30;;
12267;SDS011;6196;48.398;11.736;2022-10-16T12:12:24;0.95;;;0.90;;
12267;SDS011;6196;48.398;11.736;2022-10-16T12:18:07;2.95;;;1.00;;
12267;SDS011;6196;48.398;11.736;2022-10-16T12:20:57;1.55;;;1.20;;
12267;SDS011;6196;48.398;11.736;2022-10-16T12:23:26;1.83;;;1.10;;
12267;SDS011;6196;48.398;11.736;2022-10-16T12:25:57;1.58;;;0.90;;
12267;SDS011;6196;48.398;11.736;2022-10-16T12:28:26;1.55;;;0.95;;
12267;SDS011;6196;48.398;11.736;2022-10-16T12:30:56;2.03;;;0.90;;
12267;SDS011;6196;48.398;11.736;2022-10-16T12:33:28;1.33;;;0.90;;
12267;SDS011;6196;48.398;11.736;2022-10-16T12:36:01;1.77;;;0.85;;
12267;SDS011;6196;48.398;11.736;2022-10-16T12:41:23;1.90;;;0.85;;
12267;SDS011;6196;48.398;11.736;2022-10-16T12:43:53;0.80;;;0.60;;
12267;SDS011;6196;48.398;11.736;2022-10-16T12:46:22;1.80;;;0.80;;
12267;SDS011;6196;48.398;11.736;2022-10-16T12:51:47;0.70;;;0.63;;
12267;SDS011;6196;48.398;11.736;2022-10-16T12:54:27;1.17;;;0.73;;
12267;SDS011;6196;48.398;11.736;2022-10-16T12:57:04;0.60;;;0.60;;
12267;SDS011;6196;48.398;11.736;2022-10-16T13:17:08;3.55;;;0.70;;
12267;SDS011;6196;48.398;11.736;2022-10-16T13:23:02;0.82;;;0.63;;
12267;SDS011;6196;48.398;11.736;2022-10-16T13:28:27;1.05;;;0.68;;
12267;SDS011;6196;48.398;11.736;2022-10-16T13:30:58;0.77;;;0.60;;
12267;SDS011;6196;48.398;11.736;2022-10-16T13:33:35;2.10;;;0.70;;
12267;SDS011;6196;48.398;11.736;2022-10-16T13:36:05;2.25;;;0.80;;
12267;SDS011;6196;48.398;11.736;2022-10-16T13:38:33;1.65;;;0.77;;
12267;SDS011;6196;48.398;11.736;2022-10-16T13:41:06;2.65;;;0.85;;
12267;SDS011;6196;48.398;11.736;2022-10-16T13:43:44;1.02;;;0.70;;
12267;SDS011;6196;48.398;11.736;2022-10-16T13:46:16;1.17;;;0.70;;
12267;SDS011;6196;48.398;11.736;2022-10-16T13:48:58;1.85;;;0.90;;
12267;SDS011;6196;48.398;11.736;2022-10-16T13:51:56;0.98;;;0.50;;
12267;SDS011;6196;48.398;11.736;2022-10-16T13:54:25;2.53;;;0.88;;
12267;SDS011;6196;48.398;11.736;2022-10-16T13:56:54;1.25;;;0.70;;
12267;SDS011;6196;48.398;11.736;2022-10-16T13:59:34;1.38;;;0.70;;
12267;SDS011;6196;48.398;11.736;2022-10-16T14:04:58;3.03;;;0.77;;
12267;SDS011;6196;48.398;11.736;2022-10-16T14:07:26;1.35;;;0.95;;
12267;SDS011;6196;48.398;11.736;2022-10-16T14:10:00;2.47;;;0.80;;
12267;SDS011;6196;48.398;11.736;2022-10-16T14:12:32;1.08;;;0.80;;
12267;SDS011;6196;48.398;11.736;2022-10-16T14:15:00;1.02;;;0.70;;
12267;SDS011;6196;48.398;11.736;2022-10-16T14:17:28;2.25;;;0.73;;
12267;SDS011;6196;48.398;11.736;2022-10-16T14:19:59;1.20;;;0.70;;
12267;SDS011;6196;48.398;11.736;2022-10-16T14:25:02;2.35;;;0.90;;
12267;SDS011;6196;48.398;11.736;2022-10-16T14:27:56;1.77;;;1.45;;
12267;SDS011;6196;48.398;11.736;2022-10-16T14:30:49;1.52;;;0.88;;
12267;SDS011;6196;48.398;11.736;2022-10-16T14:33:30;3.75;;;0.95;;
12267;SDS011;6196;48.398;11.736;2022-10-16T14:36:01;1.85;;;0.85;;
12267;SDS011;6196;48.398;11.736;2022-10-16T14:38:39;2.25;;;0.85;;
12267;SDS011;6196;48.398;11.736;2022-10-16T14:41:08;1.70;;;1.00;;
12267;SDS011;6196;48.398;11.736;2022-10-16T14:43:36;2.95;;;1.02;;
12267;SDS011;6196;48.398;11.736;2022-10-16T14:46:08;1.08;;;0.70;;
12267;SDS011;6196;48.398;11.736;2022-10-16T14:48:46;1.85;;;0.85;;
12267;SDS011;6196;48.398;11.736;2022-10-16T14:51:16;1.75;;;0.80;;
12267;SDS011;6196;48.398;11.736;2022-10-16T14:53:46;2.03;;;1.30;;
12267;SDS011;6196;48.398;11.736;2022-10-16T14:56:15;4.03;;;1.00;;
12267;SDS011;6196;48.398;11.736;2022-10-16T14:58:52;1.17;;;0.90;;
12267;SDS011;6196;48.398;11.736;2022-10-16T15:01:19;3.92;;;0.93;;
12267;SDS011;6196;48.398;11.736;2022-10-16T15:03:46;1.33;;;0.90;;
12267;SDS011;6196;48.398;11.736;2022-10-16T15:06:14;1.20;;;0.77;;
12267;SDS011;6196;48.398;11.736;2022-10-16T15:08:42;2.55;;;0.77;;
12267;SDS011;6196;48.398;11.736;2022-10-16T15:11:13;0.90;;;0.77;;
12267;SDS011;6196;48.398;11.736;2022-10-16T15:13:45;1.35;;;0.80;;
12267;SDS011;6196;48.398;11.736;2022-10-16T15:16:13;4.07;;;0.80;;
12267;SDS011;6196;48.398;11.736;2022-10-16T15:18:42;2.50;;;0.75;;
12267;SDS011;6196;48.398;11.736;2022-10-16T15:21:15;1.65;;;0.90;;
12267;SDS011;6196;48.398;11.736;2022-10-16T15:23:52;1.85;;;0.73;;
12267;SDS011;6196;48.398;11.736;2022-10-16T15:26:19;4.15;;;1.00;;
12267;SDS011;6196;48.398;11.736;2022-10-16T15:28:46;6.35;;;1.27;;
12267;SDS011;6196;48.398;11.736;2022-10-16T15:31:13;3.13;;;0.98;;
12267;SDS011;6196;48.398;11.736;2022-10-16T15:33:40;3.43;;;1.27;;
12267;SDS011;6196;48.398;11.736;2022-10-16T15:36:07;1.40;;;1.20;;
12267;SDS011;6196;48.398;11.736;2022-10-16T15:38:34;2.90;;;0.80;;
12267;SDS011;6196;48.398;11.736;2022-10-16T15:41:01;1.67;;;0.80;;
12267;SDS011;6196;48.398;11.736;2022-10-16T15:43:28;1.37;;;0.90;;
12267;SDS011;6196;48.398;11.736;2022-10-16T15:46:05;2.10;;;1.00;;
12267;SDS011;6196;48.398;11.736;2022-10-16T15:48:37;3.13;;;0.87;;
12267;SDS011;6196;48.398;11.736;2022-10-16T15:51:04;3.63;;;0.90;;
12267;SDS011;6196;48.398;11.736;2022-10-16T15:53:34;2.53;;;1.10;;
12267;SDS011;6196;48.398;11.736;2022-10-16T15:56:02;1.83;;;0.90;;
12267;SDS011;6196;48.398;11.736;2022-10-16T15:58:30;4.47;;;1.17;;
12267;SDS011;6196;48.398;11.736;2022-10-16T16:00:58;8.30;;;3.10;;
12267;SDS011;6196;48.398;11.736;2022-10-16T16:03:27;6.37;;;2.47;;
12267;SDS011;6196;48.398;11.736;2022-10-16T16:05:55;4.47;;;1.57;;
12267;SDS011;6196;48.398;11.736;2022-10-16T16:08:23;4.03;;;1.40;;
12267;SDS011;6196;48.398;11.736;2022-10-16T16:10:58;3.80;;;1.00;;
12267;SDS011;6196;48.398;11.736;2022-10-16T16:13:29;3.73;;;2.20;;
12267;SDS011;6196;48.398;11.736;2022-10-16T16:15:57;5.63;;;4.13;;
12267;SDS011;6196;48.398;11.736;2022-10-16T16:18:24;7.53;;;4.43;;
12267;SDS011;6196;48.398;11.736;2022-10-16T16:20:52;6.97;;;2.63;;
12267;SDS011;6196;48.398;11.736;2022-10-16T16:23:19;7.33;;;2.90;;
12267;SDS011;6196;48.398;11.736;2022-10-16T16:26:01;3.97;;;2.50;;
12267;SDS011;6196;48.398;11.736;2022-10-16T16:28:30;4.10;;;1.43;;
12267;SDS011;6196;48.398;11.736;2022-10-16T16:30:57;2.80;;;1.20;;
12267;SDS011;6196;48.398;11.736;2022-10-16T16:33:24;4.30;;;2.17;;
12267;SDS011;6196;48.398;11.736;2022-10-16T16:35:55;26.93;;;17.00;;
12267;SDS011;6196;48.398;11.736;2022-10-16T16:38:27;21.20;;;11.47;;
12267;SDS011;6196;48.398;11.736;2022-10-16T16:40:54;10.63;;;7.47;;
12267;SDS011;6196;48.398;11.736;2022-10-16T16:43:25;7.33;;;3.60;;
12267;SDS011;6196;48.398;11.736;2022-10-16T16:45:53;2.00;;;1.60;;
12267;SDS011;6196;48.398;11.736;2022-10-16T16:48:20;1.83;;;1.30;;
12267;SDS011;6196;48.398;11.736;2022-10-16T16:50:47;3.50;;;1.20;;
12267;SDS011;6196;48.398;11.736;2022-10-16T16:53:14;2.77;;;1.53;;
12267;SDS011;6196;48.398;11.736;2022-10-16T16:55:41;3.53;;;1.50;;
12267;SDS011;6196;48.398;11.736;2022-10-16T16:58:08;2.73;;;1.30;;
12267;SDS011;6196;48.398;11.736;2022-10-16T17:00:35;2.80;;;1.10;;
12267;SDS011;6196;48.398;11.736;2022-10-16T17:03:02;2.40;;;0.97;;
12267;SDS011;6196;48.398;11.736;2022-10-16T17:05:29;3.10;;;1.13;;
12267;SDS011;6196;48.398;11.736;2022-10-16T17:07:56;5.10;;;1.00;;
12267;SDS011;6196;48.398;11.736;2022-10-16T17:10:23;4.77;;;1.03;;
12267;SDS011;6196;48.398;11.736;2022-10-16T17:12:50;3.07;;;1.10;;